Terminal Aerodrome Forecast
Issued by NWS Wichita, KS

Home | Current Version | Previous Version | Graphics & Text | Print | Product List | Glossary On
Versions: 1 2 3 4 5 6 7 8 9 10 11 12 13 14 15 16 17
000
FTUS43 KICT 021120
TAFICT
TAF
KICT 021120Z 0212/0312 02004KT P6SM SCT090 SCT250
     FM021700 04007KT P6SM BKN200
     FM030000 04007KT P6SM OVC130
     FM030600 04006KT P6SM BKN050=

USA.gov is the U.S. government's official web portal to all federal, state and local government web resources and services.